• Join FlightAware (Why Join?)
  • Login
  • US Flag 
04:05PM EDT


 

Airport Tracker/Info


-or-


 

Live Flight TrackerFlight Track Log ✈ UPS2950 ✈ 30-Oct-2013 ✈ KSDF - KOAK

Flight Track Log - Related Links

Times and Time Zones

All times are in EDT time to prevent confusion due to time zone crossing. See the UPS2950 flight status page for this flight to view local times or setup timezone preferences in your user account.

Time Position Orientation Groundspeed Altitude Reporting Facility
EDT Latitude Longitude Course Direction KTS MPH feet Rate Location/Type
03:52PM 38.1730 -85.7440 270° West 135 155  Level FlightAware
03:53PM 38.1520 -85.7370 165° South 176 203 1,000 2,040 Climbing FlightAware
03:53PM 38.1270 -85.7310 169° South 209 241 2,000 1,980 Climbing FlightAware
03:54PM 38.0960 -85.7380 190° South 241 277 3,000 2,700 Climbing FlightAware
03:54PM 38.0770 -85.7810 241° Southwest 250 288 5,000 3,360 Climbing FlightAware
03:55PM 38.0780 -85.8380 271° West 257 296 7,200 3,360 Climbing FlightAware
03:56PM 38.0750 -85.8890 266° West 261 300 9,100 2,340 Climbing FlightAware
03:56PM 38.0700 -85.9410 263° West 277 319 9,800 1,440 Climbing FlightAware
03:57PM 38.0510 -85.9900 244° Southwest 303 349 10,700 2,040 Climbing FlightAware
03:58PM 38.0440 -86.0760 264° West 332 382 12,500 2,340 Climbing FlightAware
03:58PM 38.0400 -86.1400 265° West 354 407 13,800 2,280 Climbing FlightAware
03:59PM 38.0370 -86.2270 268° West 376 433 15,300 2,280 Climbing FlightAware
03:59PM 38.0340 -86.2990 267° West 388 447 16,600 2,400 Climbing FlightAware
04:00PM 38.0270 -86.4340 266° West 399 459 19,000 2,220 Climbing FlightAware
04:01PM 38.0170 -86.5510 264° West 416 479 20,600 1,980 Climbing FlightAware
04:02PM 38.0100 -86.6460 265° West 427 491 21,900 2,040 Climbing FlightAware
04:02PM 38.0020 -86.7630 265° West 432 497 23,600 2,100 Climbing FlightAware
04:03PM 37.9960 -86.8490 265° West 435 501 24,800 2,400 Climbing FlightAware
04:04PM 37.9900 -86.9380 265° West 428 493 26,400 2,280 Climbing FlightAware
04:05PM 37.9780 -87.1080 265° West 428 493 28,700 2,340 Climbing FlightAware
04:05PM 37.9710 -87.2050 265° West 410 472 30,600 3,000 Climbing FlightAware
04:06PM 37.9670 -87.2620 265° West 396 456 31,900 1,920 Climbing FlightAware
04:07PM 37.9570 -87.3940 265° West 390 449 33,300 1,080 Climbing FlightAware
04:08PM 37.9460 -87.5240 264° West 388 447 34,000 360 Climbing FlightAware
04:09PM 37.9360 -87.6540 264° West 386 444 34,000  Level FlightAware
04:09PM 37.9290 -87.7470 265° West 387 445 34,000  Level FlightAware
04:10PM 37.9330 -87.8210 274° West 385 443 34,000  Level FlightAware
04:11PM 37.9390 -87.8950 276° West 383 441 34,000  Level FlightAware
04:11PM 37.9480 -88.0080 276° West 383 441 34,000  Level FlightAware
04:12PM 37.9530 -88.0800 275° West 384 442 34,000  Level FlightAware
04:13PM 37.9600 -88.1690 276° West 383 441 34,000  Level FlightAware
04:13PM 37.9690 -88.2900 275° West 385 443 34,000  Level FlightAware
04:14PM 37.9750 -88.3690 276° West 387 445 34,000  Level FlightAware
04:15PM 37.9820 -88.4560 276° West 389 448 34,000 60 Level FlightAware
04:16PM 37.9900 -88.5710 275° West 389 448 34,100 60 Climbing FlightAware
04:16PM 37.9950 -88.6340 276° West 390 449 34,100 -120 Level FlightAware
04:17PM 38.0060 -88.7840 275° West 389 448 34,000 -120 Descending FlightAware
04:18PM 38.0110 -88.8570 275° West 389 448 34,000  Level FlightAware
04:18PM 38.0170 -88.9420 275° West 388 447 34,000  Level FlightAware
04:19PM 38.0220 -89.0150 275° West 387 445 34,000  Level FlightAware
04:19PM 38.0260 -89.0790 275° West 386 444 34,000  Level FlightAware
04:20PM 38.0320 -89.1630 275° West 385 443 34,000  Level FlightAware
04:20PM 38.0370 -89.2440 275° West 384 442 34,000  Level FlightAware
04:21PM 38.0430 -89.3290 275° West 382 440 34,000  Level FlightAware
04:22PM 38.0490 -89.4230 275° West 381 438 34,000  Level FlightAware
04:22PM 38.0540 -89.4950 275° West 382 440 34,000  Level FlightAware
04:23PM 38.0590 -89.5740 275° West 383 441 34,000  Level FlightAware
04:24PM 38.0650 -89.6560 275° West 386 444 34,000  Level FlightAware
04:24PM 38.0690 -89.7270 274° West 391 450 34,000  Level FlightAware
04:25PM 38.0740 -89.7990 275° West 395 455 34,000 60 Level FlightAware
04:25PM 38.0800 -89.8980 274° West 400 460 34,100 60 Climbing FlightAware
04:26PM 38.0850 -89.9850 274° West 402 463 34,100 -120 Level FlightAware
04:27PM 38.0940 -90.1330 274° West 403 464 34,000 -60 Descending FlightAware
04:28PM 38.0990 -90.2240 274° West 405 466 34,000  Level FlightAware
04:28PM 38.1030 -90.2920 274° West 406 467 34,000  Level FlightAware
04:29PM 38.1070 -90.3720 274° West 408 470 34,000  Level FlightAware
04:29PM 38.1130 -90.4620 275° West 408 470 34,000 60 Level FlightAware
04:30PM 38.1180 -90.5580 274° West 407 468 34,100  Climbing FlightAware
04:31PM 38.1260 -90.6930 274° West 405 466 34,000 -120 Descending FlightAware
04:31PM 38.1300 -90.7690 274° West 406 467 34,000  Level FlightAware
04:32PM 38.1340 -90.8360 274° West 406 467 34,000  Level FlightAware
04:32PM 38.1370 -90.9050 273° West 404 465 34,000  Level FlightAware
04:33PM 38.1420 -90.9860 275° West 403 464 34,000  Level FlightAware
04:34PM 38.1480 -91.1020 274° West 403 464 34,000  Level FlightAware
04:35PM 38.1540 -91.2310 273° West 403 464 34,000  Level FlightAware
04:36PM 38.1620 -91.3850 274° West 403 464 34,000  Level FlightAware
04:37PM 38.1670 -91.5000 273° West 404 465 34,000 60 Level FlightAware
04:37PM 38.1710 -91.5730 274° West 404 465 34,100  Climbing FlightAware
04:38PM 38.1770 -91.6970 274° West 404 465 34,000 -120 Descending FlightAware
04:39PM 38.1800 -91.7720 273° West 401 461 34,000  Level FlightAware
04:39PM 38.1840 -91.8510 274° West 398 458 34,000  Level FlightAware
04:39PM 38.1860 -91.9040 273° West 397 457 34,000  Level FlightAware
04:40PM 38.1890 -91.9680 273° West 397 457 34,000  Level FlightAware
04:41PM 38.1980 -92.1840 273° West 400 460 34,000  Level FlightAware
04:42PM 38.2010 -92.2610 273° West 398 458 34,100  Climbing FlightAware
04:43PM 38.2070 -92.4100 273° West 395 455 34,000 -60 Descending FlightAware
04:44PM 38.2130 -92.5480 273° West 386 444 34,000  Level FlightAware
04:45PM 38.2160 -92.6430 272° West 377 434 34,000  Level FlightAware
04:46PM 38.2210 -92.7580 273° West 371 427 34,000  Level FlightAware
04:46PM 38.2240 -92.8460 273° West 373 429 34,000  Level FlightAware
04:47PM 38.2260 -92.9190 272° West 379 436 34,000  Level FlightAware
04:48PM 38.2290 -93.0050 273° West 386 444 34,000 660 Level FlightAware
04:49PM 38.2340 -93.1380 273° West 384 442 35,100 1,200 Climbing FlightAware
04:49PM 38.2370 -93.2240 273° West 377 434 36,000 720 Climbing FlightAware
04:50PM 38.2400 -93.2990 273° West 364 419 36,000  Level FlightAware
04:51PM 38.2440 -93.4240 272° West 374 430 36,000  Level FlightAware
04:51PM 38.2460 -93.5080 272° West 382 440 36,000  Level FlightAware
04:52PM 38.2490 -93.6000 272° West 374 430 36,000  Level FlightAware
04:53PM 38.2510 -93.6660 272° West 369 425 36,000  Level FlightAware
04:53PM 38.2530 -93.7480 272° West 365 420 36,000  Level FlightAware
04:54PM 38.2560 -93.8300 273° West 365 420 36,000  Level FlightAware
04:54PM 38.2580 -93.9120 272° West 367 422 36,000  Level FlightAware
04:55PM 38.2600 -93.9800 272° West 367 422 36,000  Level FlightAware
04:56PM 38.2620 -94.0530 272° West 367 422 36,000  Level FlightAware
04:56PM 38.2598 -93.9879 92° East 367 422 36,000  Level FlightAware ADS-B
04:57PM 38.2660 -94.2150 272° West 371 427 36,000  Level FlightAware
04:57PM 38.2670 -94.2660 271° West 372 428 36,000  Level FlightAware
04:58PM 38.2710 -94.4190 272° West 375 432 36,000  Level FlightAware
04:59PM 38.2760 -94.5010 274° West 382 440 36,000  Level FlightAware
05:00PM 38.2970 -94.5980 285° West 384 442 36,000  Level FlightAware
05:00PM 38.3120 -94.6680 285° West 385 443 36,000  Level FlightAware
05:01PM 38.3280 -94.7380 286° West 385 443 36,000  Level FlightAware
05:01PM 38.3480 -94.8290 286° West 384 442 36,000  Level FlightAware
05:02PM 38.3620 -94.8950 285° West 383 441 36,000  Level FlightAware
05:03PM 38.4080 -94.9820 304° West 432 497 36,000  Level FlightAware
05:04PM 38.5120 -95.0730 326° Northwest 441 507 36,000  Level FlightAware
05:04PM 38.5650 -95.1180 326° Northwest 440 506 36,000  Level FlightAware
05:05PM 38.6280 -95.1810 322° Northwest 438 504 36,000  Level FlightAware
05:05PM 38.6760 -95.2280 323° Northwest 440 506 36,000  Level FlightAware
05:06PM 38.7250 -95.2850 318° Northwest 436 502 36,000  Level FlightAware
05:07PM 38.7840 -95.3610 315° West 446 513 36,000  Level FlightAware
05:07PM 38.8360 -95.4190 319° Northwest 460 529 36,000 60 Level FlightAware
05:08PM 38.9060 -95.4950 320° Northwest 468 539 36,100  Climbing FlightAware
05:08PM 38.9640 -95.5550 321° Northwest 447 514 36,000 -120 Descending FlightAware
05:09PM 39.0190 -95.6100 322° Northwest 441 507 36,000  Level FlightAware
05:10PM 39.0618 -95.6522 323° Northwest 445 512 36,000  Level FlightAware ADS-B
05:10PM 39.1190 -95.7110 321° Northwest 452 520 36,000  Level FlightAware
05:11PM 39.1740 -95.7640 323° Northwest 452 520 36,000  Level FlightAware
05:11PM 39.1955 -95.7833 325° Northwest 454 522 36,000  Level FlightAware ADS-B
05:12PM 39.2840 -95.8620 325° Northwest 461 531 36,000  Level FlightAware
05:12PM 39.3330 -95.9060 325° Northwest 462 532 36,000  Level FlightAware
05:13PM 39.3040 -95.8790 144° Southeast 460 529 36,000  Level FlightAware
05:13PM 39.3750 -95.9440 325° Northwest 468 539 36,000  Level FlightAware
05:14PM 39.4180 -95.9930 319° Northwest 440 506 36,000  Level FlightAware
05:14PM 39.4530 -96.0760 299° West 406 467 36,000  Level FlightAware
05:16PM 39.4840 -96.3480 278° West 392 451 36,000  Level FlightAware
05:16PM 39.4861 -96.3711 277° West 392 451 36,000  Level FlightAware ADS-B
05:17PM 39.4980 -96.4950 277° West 388 447 36,000  Level FlightAware
05:17PM 39.5046 -96.5648 277° West 388 447 36,000  Level FlightAware ADS-B
05:18PM 39.5000 -96.5090 96° East 389 448 36,000  Level FlightAware
05:18PM 39.5080 -96.5970 277° West 387 445 36,000  Level FlightAware
05:19PM 39.5294 -96.8282 277° West 384 442 36,000  Level FlightAware ADS-B
05:20PM 39.5250 -96.7760 96° East 387 445 36,000  Level FlightAware
05:20PM 39.5468 -97.0148 277° West 382 440 36,000  Level FlightAware ADS-B
05:21PM 39.5528 -97.0828 277° West 381 438 36,000  Level FlightAware ADS-B
05:22PM 39.5538 -97.0928 277° West 380 437 36,000  Level FlightAware ADS-B
05:23PM 39.5730 -97.3010 277° West 376 433 36,000  Level FlightAware
05:23PM 39.5636 -97.2006 97° East 378 435 36,000  Level FlightAware ADS-B
05:23PM 39.5815 -97.4020 277° West 376 433 36,000  Level FlightAware ADS-B
05:24PM 39.5875 -97.4698 277° West 375 432 36,000  Level FlightAware ADS-B
05:25PM 39.5925 -97.5268 277° West 373 429 36,000  Level FlightAware ADS-B
05:26PM 39.6023 -97.6396 276° West 373 429 36,000  Level FlightAware ADS-B
05:26PM 39.6154 -97.7940 276° West 374 430 36,000  Level FlightAware ADS-B
05:27PM 39.6217 -97.8690 276° West 375 432 36,000  Level FlightAware ADS-B
05:27PM 39.6250 -97.9120 276° West 375 432 36,000  Level FlightAware
05:28PM 39.6395 -98.0838 276° West 378 435 36,000  Level FlightAware ADS-B
05:29PM 39.6500 -98.2080 276° West 377 434 36,000  Level FlightAware
05:30PM 39.6570 -98.2960 276° West 377 434 36,000  Level FlightAware
05:31PM 39.6620 -98.3650 275° West 377 434 36,000  Level FlightAware
05:31PM 39.6710 -98.4760 276° West 374 430 36,000  Level FlightAware
05:32PM 39.6760 -98.5520 275° West 374 430 36,000  Level FlightAware
05:33PM 39.6820 -98.6450 275° West 374 430 36,000  Level FlightAware
05:34PM 39.6900 -98.7560 275° West 374 430 36,000  Level FlightAware
05:35PM 39.6980 -98.8720 275° West 374 430 36,000  Level FlightAware
05:35PM 39.7020 -98.9370 275° West 374 430 36,000  Level FlightAware
05:36PM 39.7080 -99.0300 275° West 374 430 36,000  Level FlightAware
05:37PM 39.7130 -99.1010 275° West 374 430 36,000  Level FlightAware
05:37PM 39.7170 -99.1650 275° West 374 430 36,000  Level FlightAware
05:38PM 39.7240 -99.2610 275° West 374 430 36,000  Level FlightAware
05:39PM 39.7290 -99.3310 275° West 374 430 36,000  Level FlightAware
05:39PM 39.7330 -99.4020 274° West 374 430 36,000  Level FlightAware
05:40PM 39.7380 -99.4680 276° West 374 430 36,000  Level FlightAware
05:41PM 39.7420 -99.5370 274° West 374 430 36,000  Level FlightAware
05:41PM 39.7450 -99.5830 275° West 374 430 36,000  Level FlightAware
05:42PM 39.7697 -99.8442 275° West 376 433 36,000  Level Denver Center
05:43PM 39.7794 -99.9794 275° West 376 433 36,000  Level Denver Center
05:44PM 39.7881 -100.1167 275° West 380 437 36,000  Level Denver Center
05:45PM 39.7958 -100.2525 274° West 376 433 36,000  Level Denver Center
05:46PM 39.8067 -100.4061 275° West 377 434 36,000  Level Denver Center
05:47PM 39.8139 -100.5375 274° West 379 436 36,000  Level Denver Center
05:48PM 39.8231 -100.6897 275° West 378 435 36,000  Level Denver Center
05:49PM 39.8314 -100.8206 275° West 378 435 36,000  Level Denver Center
05:50PM 39.8392 -100.9711 274° West 376 433 36,000  Level Denver Center
05:51PM 39.8472 -101.1028 275° West 379 436 36,000  Level Denver Center
05:57PM 39.8890 -101.9080 275° West 377 434 36,000  Level FlightAware
05:57PM 39.8950 -102.0200 274° West 377 434 36,000  Level FlightAware
05:58PM 39.9000 -102.1390 273° West 376 433 36,000  Level FlightAware
05:59PM 39.9040 -102.2080 274° West 377 434 36,000  Level FlightAware
05:59PM 39.9070 -102.2790 273° West 379 436 36,000  Level FlightAware
06:00PM 39.9130 -102.4040 274° West 378 435 36,000  Level FlightAware
06:01PM 39.9160 -102.4810 273° West 376 433 36,000  Level FlightAware
06:01PM 39.9190 -102.5500 273° West 374 430 36,000  Level FlightAware
06:02PM 39.9220 -102.6240 273° West 373 429 36,000  Level FlightAware
06:03PM 39.9270 -102.7440 273° West 375 432 36,000  Level FlightAware
06:03PM 39.9300 -102.8050 274° West 375 432 36,000  Level FlightAware
06:04PM 39.9330 -102.9020 272° West 376 433 36,000  Level FlightAware
06:05PM 39.9390 -103.0300 274° West 379 436 36,000  Level FlightAware
06:05PM 39.9410 -103.1040 272° West 380 437 36,000  Level FlightAware
06:06PM 39.9430 -103.1390 274° West 380 437 36,000  Level FlightAware
06:07PM 39.9490 -103.2950 273° West 376 433 36,000  Level FlightAware
06:08PM 39.9530 -103.4180 272° West 375 432 36,000  Level FlightAware
06:09PM 39.9580 -103.5470 273° West 380 437 36,000  Level FlightAware
06:09PM 39.9600 -103.6200 272° West 384 442 36,000  Level FlightAware
06:10PM 39.9640 -103.7280 273° West 391 450 36,000  Level FlightAware
06:11PM 39.9670 -103.8400 272° West 396 456 36,000  Level FlightAware
06:12PM 39.9710 -103.9690 272° West 401 461 36,000  Level FlightAware
06:12PM 39.9730 -104.0390 272° West 401 461 36,000  Level FlightAware
06:13PM 39.9750 -104.1050 272° West 401 461 36,000  Level FlightAware
06:14PM 39.9800 -104.2500 273° West 402 463 36,000  Level FlightAware
06:15PM 39.9830 -104.3900 272° West 408 470 36,000  Level FlightAware
06:15PM 39.9870 -104.5200 272° West 413 475 36,000  Level FlightAware
06:16PM 39.9900 -104.6500 272° West 418 481 36,000  Level FlightAware
06:17PM 39.9940 -104.7810 272° West 422 486 36,000  Level FlightAware
06:18PM 39.9960 -104.8580 272° West 422 486 36,000  Level FlightAware
06:19PM 39.9990 -104.9960 272° West 424 488 36,000 300 Level FlightAware
06:19PM 40.0010 -105.0860 272° West 421 484 36,500 720 Climbing FlightAware
06:20PM 40.0030 -105.1980 271° West 429 494 37,000 780 Climbing FlightAware
06:20PM 40.0040 -105.2750 271° West 428 493 37,500 720 Climbing FlightAware
06:21PM 40.0070 -105.4110 272° West 433 498 38,000 300 Climbing FlightAware
06:22PM 40.0080 -105.4940 271° West 431 496 38,000  Level FlightAware
06:23PM 40.0110 -105.6350 272° West 432 497 38,000  Level FlightAware
06:24PM 40.0130 -105.7700 271° West 431 496 38,000  Level FlightAware
06:24PM 40.0150 -105.9150 271° West 438 504 38,000  Level FlightAware
06:25PM 40.0170 -106.0690 271° West 444 511 38,000  Level FlightAware
06:26PM 40.0180 -106.1540 271° West 444 511 38,000  Level FlightAware
06:27PM 40.0190 -106.2670 271° West 445 512 38,000  Level FlightAware
06:27PM 40.0193 -106.2736 274° West 445 512 38,000  Level FlightAware ADS-B (KMTJ)
06:28PM 40.0110 -106.4440 266° West 445 512 38,000  Level FlightAware
06:28PM 40.0010 -106.5240 261° West 444 511 38,000  Level FlightAware
06:29PM 39.9915 -106.6033 261° West 446 513 38,000  Level FlightAware ADS-B (KMTJ)
06:30PM 39.9670 -106.7990 261° West 444 511 38,000  Level FlightAware
06:30PM 39.9691 -106.7829 80° East 445 512 38,000  Level FlightAware ADS-B (KMTJ)
06:31PM 39.9510 -106.9220 260° West 445 512 38,000  Level FlightAware
06:31PM 39.9424 -106.9895 261° West 446 513 38,000  Level FlightAware ADS-B (KMTJ)
06:32PM 39.9317 -107.0701 260° West 447 514 38,000  Level FlightAware ADS-B (KMTJ)
06:32PM 39.9201 -107.1577 260° West 446 513 38,000  Level FlightAware ADS-B (KMTJ)
06:33PM 39.9065 -107.2610 260° West 447 514 38,000  Level FlightAware ADS-B (KMTJ)
06:33PM 39.8960 -107.3423 260° West 446 513 38,000  Level FlightAware ADS-B (KMTJ)
06:34PM 39.8824 -107.4445 260° West 447 514 38,000  Level FlightAware ADS-B (KMTJ)
06:35PM 39.8719 -107.5237 260° West 449 517 38,000  Level FlightAware ADS-B (KMTJ)
06:35PM 39.8611 -107.6039 260° West 450 518 38,000  Level FlightAware ADS-B (KMTJ)
06:36PM 39.8503 -107.6851 260° West 452 520 38,000  Level FlightAware ADS-B (KMTJ)
06:36PM 39.8390 -107.7679 260° West 454 522 38,000  Level FlightAware ADS-B (KMTJ)
06:37PM 39.8274 -107.8512 260° West 458 527 38,000  Level FlightAware ADS-B (KMTJ)
06:37PM 39.8154 -107.9355 260° West 459 528 38,000 60 Level FlightAware ADS-B (KMTJ)
06:38PM 39.7978 -108.0626 260° West 462 532 38,100  Climbing FlightAware ADS-B (KMTJ)
06:38PM 39.7859 -108.1477 260° West 463 533 38,000 -120 Descending FlightAware ADS-B (KMTJ)
06:39PM 39.7745 -108.2290 260° West 463 533 38,000  Level FlightAware ADS-B (KMTJ)
06:40PM 39.7550 -108.3690 260° West 464 534 38,000  Level FlightAware
06:40PM 39.7508 -108.3955 258° West 466 536 38,000  Level FlightAware ADS-B (KMTJ)
06:40PM 39.7388 -108.4802 260° West 467 537 38,000  Level FlightAware ADS-B (KMTJ)
06:41PM 39.7272 -108.5600 259° West 467 537 38,000  Level FlightAware ADS-B (KMTJ)
06:41PM 39.7152 -108.6440 259° West 469 540 38,000  Level FlightAware ADS-B (KMTJ)
06:42PM 39.6992 -108.7537 259° West 473 544 38,000  Level FlightAware ADS-B (KMTJ)
06:43PM 39.6863 -108.8408 259° West 474 545 38,000  Level FlightAware ADS-B (KMTJ)
06:43PM 39.6741 -108.9243 259° West 475 547 38,000 60 Level FlightAware ADS-B (KMTJ)
06:44PM 39.6614 -109.0105 259° West 477 549 38,100 60 Climbing FlightAware ADS-B (KMTJ)
06:44PM 39.6488 -109.0947 259° West 480 552 38,100  Level FlightAware ADS-B (KMTJ)
06:45PM 39.6362 -109.1790 259° West 482 555 38,100  Level FlightAware ADS-B (KMTJ)
06:45PM 39.6213 -109.2781 259° West 486 559 38,100  Level FlightAware ADS-B (KMTJ)
06:46PM 39.6082 -109.3652 259° West 487 560 38,100  Level FlightAware ADS-B (KMTJ)
06:46PM 39.5958 -109.4456 259° West 487 560 38,100 -120 Level FlightAware ADS-B (KMTJ)
06:47PM 39.5811 -109.5424 259° West 487 560 38,000 -120 Descending FlightAware ADS-B (KMTJ)
06:47PM 39.5688 -109.6216 259° West 485 558 38,000  Level FlightAware ADS-B (KMTJ)
06:48PM 39.5531 -109.7246 259° West 483 556 38,000  Level FlightAware ADS-B (KMTJ)
06:48PM 39.5376 -109.8257 259° West 481 554 38,000  Level FlightAware ADS-B (KMTJ)
06:49PM 39.5239 -109.9131 259° West 481 554 38,000  Level FlightAware ADS-B (KMTJ)
06:50PM 39.5098 -110.0016 258° West 479 551 38,000  Level FlightAware ADS-B (KMTJ)
06:50PM 39.4952 -110.0942 258° West 476 548 38,000  Level FlightAware ADS-B (KMTJ)
06:51PM 39.4815 -110.1810 258° West 475 547 38,000  Level FlightAware ADS-B (KMTJ)
06:51PM 39.4682 -110.2661 259° West 472 543 38,000  Level FlightAware ADS-B (KMTJ)
06:52PM 39.4545 -110.3523 258° West 472 543 38,000  Level FlightAware ADS-B (KMTJ)
06:52PM 39.4409 -110.4351 258° West 470 541 38,000  Level FlightAware ADS-B (KMTJ)
06:53PM 39.4257 -110.5280 258° West 471 542 38,000  Level FlightAware ADS-B (KMTJ)
06:53PM 39.4087 -110.6334 258° West 475 547 38,000  Level FlightAware ADS-B (KMTJ)
06:54PM 39.3936 -110.7260 258° West 479 551 38,000 60 Level FlightAware ADS-B (KMTJ)
06:54PM 39.3779 -110.8215 258° West 483 556 38,100 60 Climbing FlightAware ADS-B (KMTJ)
06:55PM 39.3633 -110.9112 258° West 488 562 38,100 -120 Level FlightAware ADS-B (KMTJ)
06:56PM 39.3483 -111.0020 258° West 490 564 38,000 -120 Descending FlightAware ADS-B (KMTJ)
06:56PM 39.3340 -111.0886 258° West 491 565 38,000  Level FlightAware ADS-B (KMTJ)
06:57PM 39.3144 -111.2056 258° West 489 563 38,000  Level FlightAware ADS-B (KMTJ)
06:57PM 39.2998 -111.2926 258° West 487 560 38,000  Level FlightAware ADS-B (KMTJ)
06:57PM 39.2947 -111.3220 257° West 486 559 38,000  Level FlightAware ADS-B
06:58PM 39.2849 -111.3787 257° West 486 559 38,000  Level FlightAware ADS-B (KMTJ)
06:58PM 39.2789 -111.4140 258° West 486 559 38,000  Level FlightAware ADS-B
06:58PM 39.2708 -111.4605 257° West 486 559 38,000  Level FlightAware ADS-B (KMTJ)
06:58PM 39.2643 -111.4990 258° West 486 559 38,000  Level FlightAware ADS-B
06:59PM 39.2482 -111.5930 258° West 487 560 38,000  Level FlightAware ADS-B
06:59PM 39.2433 -111.6219 258° West 488 562 38,000  Level FlightAware ADS-B (KBTF)
07:00PM 39.2317 -111.6890 257° West 491 565 38,000  Level FlightAware ADS-B
07:00PM 39.2241 -111.7322 257° West 490 564 38,000  Level FlightAware ADS-B (KBTF)
07:00PM 39.2164 -111.7770 257° West 493 567 38,000  Level FlightAware ADS-B
07:01PM 39.2012 -111.8650 257° West 495 570 38,000 60 Level FlightAware ADS-B
07:01PM 39.1824 -111.9720 257° West 496 571 38,100 60 Climbing FlightAware ADS-B
07:02PM 39.1671 -112.0590 257° West 496 571 38,100  Level FlightAware ADS-B
07:02PM 39.1519 -112.1460 257° West 494 568 38,100 -120 Level FlightAware ADS-B
07:03PM 39.1363 -112.2330 257° West 492 566 38,000 -120 Descending FlightAware ADS-B
07:03PM 39.1211 -112.3190 257° West 493 567 38,000  Level FlightAware ADS-B
07:04PM 39.1056 -112.4050 257° West 491 565 38,000  Level FlightAware ADS-B
07:04PM 39.0902 -112.4910 257° West 490 564 38,000  Level FlightAware ADS-B
07:05PM 39.0743 -112.5780 257° West 489 563 38,000  Level FlightAware ADS-B
07:05PM 39.0590 -112.6630 257° West 488 562 38,000  Level FlightAware ADS-B
07:06PM 39.0413 -112.7600 257° West 488 562 38,000  Level FlightAware ADS-B
07:06PM 39.0258 -112.8440 257° West 488 562 38,000  Level FlightAware ADS-B
07:07PM 38.9970 -113.0000 257° West 488 562 38,000  Level FlightAware ADS-B
07:08PM 38.9670 -113.1620 257° West 489 563 38,000  Level FlightAware
07:09PM 38.9450 -113.2780 256° West 488 562 38,100 60 Climbing FlightAware
07:10PM 38.9220 -113.3970 256° West 488 562 38,100  Level FlightAware
07:11PM 38.8900 -113.5690 257° West 489 563 38,100 -60 Level FlightAware
07:12PM 38.8530 -113.7650 256° West 487 560 38,000 -60 Descending FlightAware
07:13PM 38.8280 -113.8930 256° West 487 560 38,000  Level FlightAware
07:13PM 38.8050 -114.0100 256° West 487 560 38,000  Level FlightAware
07:14PM 38.7770 -114.1550 256° West 487 560 38,000  Level FlightAware
07:15PM 38.7610 -114.2390 256° West 487 560 38,000  Level FlightAware
07:15PM 38.7490 -114.2980 255° West 487 560 38,000  Level FlightAware
07:16PM 38.7270 -114.4130 256° West 487 560 38,000  Level FlightAware
07:17PM 38.6990 -114.5560 256° West 487 560 38,000  Level FlightAware
07:18PM 38.6760 -114.6720 256° West 487 560 38,000  Level FlightAware
07:19PM 38.6540 -114.7870 256° West 487 560 38,000  Level FlightAware
07:20PM 38.6370 -114.8750 256° West 487 560 38,000  Level FlightAware
07:20PM 38.6260 -114.9290 255° West 487 560 38,000  Level FlightAware
07:21PM 38.6030 -115.0460 256° West 487 560 38,000  Level FlightAware
07:22PM 38.5810 -115.1600 256° West 487 560 38,000  Level FlightAware
07:22PM 38.5117 -115.4597 256° West 482 555 38,000  Level Salt Lake Center
07:28PM 38.4000 -116.4130 256° West 477 549 38,000  Level FlightAware
07:29PM 38.3820 -116.5800 262° West 479 551 38,000  Level FlightAware
07:30PM 38.3690 -116.7040 262° West 479 551 38,000  Level FlightAware
07:31PM 38.3500 -116.8740 262° West 481 554 38,000 60 Level FlightAware
07:31PM 38.3400 -116.9690 262° West 482 555 38,100 60 Climbing FlightAware
07:32PM 38.3260 -117.0910 262° West 482 555 38,100 -120 Level FlightAware
07:33PM 38.3130 -117.2030 262° West 483 556 38,000 -120 Descending FlightAware
07:33PM 38.2970 -117.3500 262° West 483 556 38,000  Level FlightAware
07:34PM 38.2780 -117.5080 261° West 479 551 38,000  Level FlightAware
07:36PM 38.2580 -117.6910 262° West 479 551 38,000  Level FlightAware
07:37PM 38.2340 -117.8820 261° West 475 547 38,000  Level FlightAware
07:37PM 38.2240 -117.9700 262° West 477 549 38,000  Level FlightAware
07:38PM 38.2070 -118.1050 261° West 480 552 38,000  Level FlightAware
07:38PM 38.1970 -118.1880 261° West 482 555 38,000  Level FlightAware
07:39PM 38.1800 -118.3260 261° West 486 559 38,000  Level FlightAware
07:40PM 38.1670 -118.4300 261° West 487 560 38,000  Level FlightAware
07:41PM 38.1530 -118.5450 261° West 487 560 38,000  Level FlightAware
07:42PM 38.1380 -118.6610 261° West 487 560 38,000  Level FlightAware
07:42PM 38.1130 -118.8600 261° West 496 571 38,000  Level FlightAware
07:43PM 38.0920 -119.0230 261° West 494 568 38,000  Level FlightAware
07:44PM 38.0705 -119.1838 260° West 492 566 38,000  Level FlightAware ADS-B (KAHC)
07:45PM 38.0555 -119.2981 261° West 490 564 38,000  Level FlightAware ADS-B (KAHC)
07:46PM 38.0400 -119.4140 260° West 490 564 38,000  Level FlightAware
07:46PM 38.0280 -119.5023 260° West 493 567 38,000  Level FlightAware ADS-B (KAHC)
07:47PM 38.0121 -119.6202 260° West 499 574 38,000 -240 Level FlightAware ADS-B (KAHC)
07:48PM 37.9980 -119.7234 260° West 504 580 37,700 -1,440 Descending FlightAware ADS-B (KAHC)
07:48PM 37.9760 -119.8880 260° West 497 572 35,800 -2,460 Descending FlightAware
07:49PM 37.9510 -120.0640 260° West 489 563 33,000 -2,700 Descending FlightAware
07:50PM 37.9320 -120.1990 260° West 477 549 31,000 -2,400 Descending FlightAware
07:51PM 37.9140 -120.3260 260° West 455 524 29,200 -2,340 Descending FlightAware
07:52PM 37.8940 -120.4640 260° West 434 499 27,100 -2,340 Descending FlightAware
07:53PM 37.8780 -120.5830 260° West 423 487 25,300 -2,340 Descending FlightAware
07:54PM 37.8620 -120.7220 262° West 415 478 23,000 -2,700 Descending FlightAware
07:54PM 37.8540 -120.8350 265° West 414 476 20,600 -2,880 Descending FlightAware
07:55PM 37.8460 -120.9740 266° West 403 464 18,000 -2,820 Descending FlightAware
07:56PM 37.8390 -121.0880 266° West 400 460 15,700 -2,820 Descending FlightAware
07:57PM 37.8300 -121.1770 263° West 391 450 13,900 -2,580 Descending FlightAware
07:58PM 37.7969 -121.2750 247° West 377 434 12,000 -1,920 Descending FlightAware ADS-B
07:58PM 37.7757 -121.3350 246° West 338 389 11,400 -1,200 Descending FlightAware ADS-B
07:59PM 37.7567 -121.3880 246° West 309 356 10,800 -1,080 Descending FlightAware ADS-B
07:59PM 37.7345 -121.4510 246° West 298 343 10,200 -1,020 Descending FlightAware ADS-B
08:00PM 37.7047 -121.5350 246° West 296 341 9,300 -960 Descending FlightAware ADS-B
08:01PM 37.6840 -121.5910 245° Southwest 281 323 8,800 -840 Descending FlightAware
08:01PM 37.6688 -121.6340 246° West 280 322 8,400 -960 Descending FlightAware ADS-B
08:02PM 37.6591 -121.6610 246° West 281 323 8,100 -1,020 Descending FlightAware ADS-B
08:02PM 37.6519 -121.6810 246° West 280 322 7,900 -900 Descending FlightAware ADS-B
08:02PM 37.6486 -121.6930 251° West 280 322 7,800 -900 Descending FlightAware ADS-B
08:02PM 37.6466 -121.7020 254° West 278 320 7,700 -1,080 Descending FlightAware ADS-B
08:02PM 37.6425 -121.7190 253° West 279 321 7,500 -960 Descending FlightAware ADS-B
08:03PM 37.6370 -121.7420 253° West 277 319 7,300 -1,200 Descending FlightAware ADS-B
08:03PM 37.6327 -121.7600 253° West 277 319 7,000 -1,380 Descending FlightAware ADS-B
08:03PM 37.6273 -121.7830 253° West 272 313 6,700 -1,200 Descending FlightAware ADS-B
08:03PM 37.6217 -121.8050 252° West 266 306 6,400 -1,080 Descending FlightAware ADS-B
08:03PM 37.6169 -121.8240 252° West 265 305 6,200 -1,440 Descending FlightAware ADS-B
08:04PM 37.6121 -121.8430 252° West 264 304 5,800 -1,800 Descending FlightAware ADS-B
08:04PM 37.6102 -121.8490 248° West 266 306 5,700 -1,500 Descending FlightAware ADS-B
08:04PM 37.6080 -121.8550 245° Southwest 267 307 5,600 -2,040 Descending FlightAware ADS-B
08:04PM 37.6045 -121.8620 238° Southwest 268 308 5,400 -1,200 Descending FlightAware ADS-B
08:04PM 37.5934 -121.8810 234° Southwest 262 302 5,200 -780 Descending FlightAware ADS-B
08:04PM 37.5834 -121.9000 236° Southwest 251 289 5,000 -1,020 Descending FlightAware ADS-B
08:05PM 37.5738 -121.9170 235° Southwest 244 281 4,700 -900 Descending FlightAware ADS-B
08:05PM 37.5707 -121.9240 241° Southwest 243 280 4,700 -780 Level FlightAware ADS-B
08:05PM 37.5693 -121.9280 246° West 241 277 4,600 -1,740 Descending FlightAware ADS-B
08:05PM 37.5682 -121.9330 254° West 240 276 4,500 -900 Descending FlightAware ADS-B
08:05PM 37.5677 -121.9370 261° West 238 274 4,500 -900 Level FlightAware ADS-B
08:05PM 37.5676 -121.9420 269° West 235 270 4,400 -1,140 Descending FlightAware ADS-B
08:05PM 37.5678 -121.9520 271° West 232 267 4,300 -1,320 Descending FlightAware ADS-B
08:05PM 37.5688 -121.9730 273° West 232 267 3,900 -1,260 Descending FlightAware ADS-B
08:06PM 37.5700 -121.9970 274° West 228 262 3,600 -1,080 Descending FlightAware ADS-B
08:06PM 37.5709 -122.0120 274° West 225 259 3,400 -1,140 Descending FlightAware ADS-B
08:06PM 37.5717 -122.0180 280° West 225 259 3,300 -1,380 Descending FlightAware ADS-B
08:06PM 37.5731 -122.0230 289° West 224 258 3,200 -1,740 Descending FlightAware ADS-B
08:06PM 37.5748 -122.0260 306° West 223 257 3,100 -1,740 Descending FlightAware ADS-B
08:06PM 37.5776 -122.0310 305° West 220 253 3,000 -960 Descending FlightAware ADS-B
08:06PM 37.5839 -122.0390 315° West 216 249 2,900 -240 Descending FlightAware ADS-B
08:07PM 37.5947 -122.0550 310° West 217 250 2,900 -240 Level FlightAware ADS-B
08:07PM 37.6041 -122.0690 310° West 212 244 2,800 -840 Descending FlightAware ADS-B
08:07PM 37.6134 -122.0820 312° West 205 236 2,500 -1,200 Descending FlightAware ADS-B
08:07PM 37.6229 -122.0970 309° West 204 235 2,200 -1,200 Descending FlightAware ADS-B
08:08PM 37.6319 -122.1100 311° West 192 221 1,900 -1,020 Descending FlightAware ADS-B
08:08PM 37.6403 -122.1230 309° West 177 204 1,700 -900 Descending FlightAware ADS-B
08:08PM 37.6463 -122.1320 310° West 162 186 1,500 -900 Descending FlightAware ADS-B
08:08PM 37.6532 -122.1420 311° West 148 170 1,300 -780 Descending FlightAware ADS-B
08:09PM 37.6599 -122.1520 310° West 148 170 1,100 -900 Descending FlightAware ADS-B
08:09PM 37.6658 -122.1610 310° West 147 169 900 -840 Descending FlightAware ADS-B
08:09PM 37.6730 -122.1710 312° West 147 169 700 -660 Descending FlightAware ADS-B
08:09PM 37.6785 -122.1790 311° West 145 167 600 -600 Descending FlightAware ADS-B
08:09PM 37.6820 -122.1850 306° West 145 167 500 -720 Descending FlightAware ADS-B
08:10PM 37.6862 -122.1910 311° West 146 168 400 -720 Descending FlightAware ADS-B
08:10PM 37.6932 -122.2020 309° West 146 168 200 -780 Descending FlightAware ADS-B
08:10PM 37.7068 -122.2220 311° West 125 144 -420 Descending FlightAware ADS-B